createdAt,value
2022-07-30T00:00:38.228Z,102052.13
2022-07-30T00:01:40.129Z,102032.75
2022-07-30T00:02:42.792Z,102047.84
2022-07-30T00:03:44.708Z,102031.75
2022-07-30T00:04:46.740Z,102042.59
2022-07-30T00:05:48.775Z,102048.19
2022-07-30T00:06:50.904Z,102051.59
2022-07-30T00:07:52.820Z,102048.88
2022-07-30T00:08:54.748Z,102050.91
2022-07-30T00:09:56.616Z,102023.25
2022-07-30T00:10:58.560Z,102040.88
2022-07-30T00:12:00.477Z,102034.28
2022-07-30T00:13:03.705Z,102022.44
2022-07-30T00:14:05.686Z,102034.28
2022-07-30T00:15:08.301Z,102041.06
2022-07-30T00:16:10.174Z,102039.38
2022-07-30T00:17:12.299Z,102026.16
2022-07-30T00:18:14.404Z,102033.63
2022-07-30T00:19:17.347Z,102048.34
2022-07-30T00:20:20.611Z,102032.06
2022-07-30T00:21:35.802Z,102028.00
2022-07-30T00:22:40.797Z,102038.03
2022-07-30T00:23:42.611Z,102035.66
2022-07-30T00:25:03.474Z,102021.41
2022-07-30T00:26:05.246Z,102033.78
2022-07-30T00:27:09.091Z,102023.94
2022-07-30T00:28:10.942Z,102031.41
2022-07-30T00:29:13.055Z,102034.44
2022-07-30T00:30:15.154Z,102028.34
2022-07-30T00:31:18.352Z,102025.63
2022-07-30T00:32:20.222Z,102031.06
2022-07-30T00:33:22.048Z,102027.34
2022-07-30T00:34:23.937Z,102036.47
2022-07-30T00:35:27.474Z,102016.47
2022-07-30T00:36:29.667Z,102009.03
2022-07-30T00:37:31.578Z,102029.53
2022-07-30T00:38:33.475Z,102013.41
2022-07-30T00:39:35.339Z,102010.72
2022-07-30T00:40:37.336Z,102014.44
2022-07-30T00:42:01.892Z,102030.03
2022-07-30T00:43:03.731Z,102022.78
2022-07-30T00:44:05.662Z,102028.53
2022-07-30T00:45:08.488Z,102028.00
2022-07-30T00:46:11.235Z,102016.81
2022-07-30T00:47:13.076Z,102027.47
2022-07-30T00:48:16.476Z,102022.91
2022-07-30T00:49:18.441Z,102024.94
2022-07-30T00:50:20.455Z,102028.31
2022-07-30T00:51:23.527Z,102023.06
2022-07-30T00:52:25.615Z,102013.06
2022-07-30T00:53:27.487Z,102014.44
2022-07-30T00:54:29.576Z,102023.25
2022-07-30T00:55:31.843Z,102012.53
2022-07-30T00:56:33.623Z,102026.97
2022-07-30T00:57:35.986Z,102023.56
2022-07-30T00:58:37.902Z,102018.09
2022-07-30T00:59:39.714Z,102023.56
2022-07-30T01:00:41.598Z,102017.81
2022-07-30T01:01:43.598Z,102021.00
2022-07-30T01:02:46.359Z,102014.09
2022-07-30T01:03:48.133Z,102018.81
2022-07-30T01:04:50.331Z,102021.19
2022-07-30T01:05:54.838Z,102002.66
2022-07-30T01:06:57.418Z,102009.00
2022-07-30T01:07:59.443Z,102004.72
2022-07-30T01:09:01.546Z,102011.00
2022-07-30T01:10:04.708Z,102015.94
2022-07-30T01:11:06.998Z,101998.09
2022-07-30T01:12:11.221Z,102016.09
2022-07-30T01:13:13.225Z,102013.41
2022-07-30T01:14:15.230Z,101993.00
2022-07-30T01:15:17.980Z,102009.28
2022-07-30T01:16:19.966Z,102009.97
2022-07-30T01:17:21.892Z,101995.88
2022-07-30T01:18:45.392Z,101996.56
2022-07-30T01:19:51.016Z,102000.63
2022-07-30T01:21:07.784Z,102001.19
2022-07-30T01:22:15.941Z,102010.50
2022-07-30T01:23:31.379Z,102022.22
2022-07-30T01:24:40.470Z,102010.69
2022-07-30T01:26:01.581Z,102005.28
2022-07-30T01:27:04.927Z,101966.56
2022-07-30T01:28:12.562Z,101997.56
2022-07-30T01:29:16.590Z,101978.75
2022-07-30T01:30:23.568Z,101999.75
2022-07-30T01:31:27.177Z,101990.25
2022-07-30T01:32:31.267Z,101986.53
2022-07-30T01:33:37.333Z,101992.63
2022-07-30T01:34:40.383Z,101995.00
2022-07-30T01:35:45.351Z,101987.00
2022-07-30T01:36:47.653Z,102021.06
2022-07-30T01:37:50.944Z,102001.94
2022-07-30T01:38:54.175Z,101991.41
2022-07-30T01:39:57.019Z,101999.72
2022-07-30T01:40:59.736Z,102006.50
2022-07-30T01:42:05.552Z,101980.75
2022-07-30T01:43:09.083Z,102012.59
2022-07-30T01:44:13.327Z,102008.19
2022-07-30T01:45:16.464Z,101989.56
2022-07-30T01:46:19.835Z,102001.25
2022-07-30T01:47:25.414Z,102008.19
2022-07-30T01:48:29.271Z,102015.63
2022-07-30T01:49:34.167Z,102007.84
2022-07-30T01:50:37.548Z,102005.13
2022-07-30T01:51:39.833Z,102018.34
2022-07-30T01:52:48.989Z,102006.16
2022-07-30T01:53:53.696Z,101991.72
2022-07-30T01:54:58.028Z,102006.84
2022-07-30T01:56:03.019Z,101988.19
2022-07-30T01:57:07.552Z,101982.22
2022-07-30T01:58:12.479Z,101981.72
2022-07-30T01:59:20.240Z,102008.84
2022-07-30T02:00:24.663Z,102004.09
2022-07-30T02:01:27.083Z,102012.56
2022-07-30T02:02:36.399Z,102010.88
2022-07-30T02:03:38.273Z,102017.16
2022-07-30T02:04:41.272Z,101995.63
2022-07-30T02:05:50.267Z,101999.00
2022-07-30T02:07:04.415Z,102009.19
2022-07-30T02:08:12.629Z,102010.88
2022-07-30T02:09:22.393Z,101985.13
2022-07-30T02:10:49.288Z,101990.34
2022-07-30T02:12:13.680Z,101984.63
2022-07-30T02:13:21.444Z,101999.38
2022-07-30T02:14:47.932Z,102010.22
2022-07-30T02:16:11.316Z,102003.28
2022-07-30T02:17:21.059Z,101989.88
2022-07-30T02:18:39.909Z,101999.38
2022-07-30T02:19:44.425Z,101992.41
2022-07-30T02:20:56.255Z,101976.97
2022-07-30T02:22:06.910Z,101998.00
2022-07-30T02:23:12.668Z,102001.53
2022-07-30T02:24:20.019Z,101983.06
2022-07-30T02:25:24.063Z,101989.97
2022-07-30T02:26:30.015Z,101987.78
2022-07-30T02:27:35.307Z,101981.84
2022-07-30T02:28:44.427Z,101991.31
2022-07-30T02:29:48.702Z,101982.31
2022-07-30T02:30:54.469Z,101991.97
2022-07-30T02:31:58.204Z,101982.69
2022-07-30T02:33:05.912Z,101999.13
2022-07-30T02:34:09.340Z,102010.81
2022-07-30T02:35:22.794Z,101998.97
2022-07-30T02:36:25.741Z,101981.31
2022-07-30T02:37:41.555Z,101985.00
2022-07-30T02:38:47.587Z,102008.78
2022-07-30T02:39:52.282Z,102004.53
2022-07-30T02:41:00.675Z,102001.78
2022-07-30T02:42:04.668Z,102011.81
2022-07-30T02:43:06.519Z,101999.22
2022-07-30T02:44:10.250Z,102007.19
2022-07-30T02:45:16.231Z,102013.16
2022-07-30T02:46:20.027Z,101986.66
2022-07-30T02:48:08.115Z,101991.66
2022-07-30T02:49:14.929Z,102008.09
2022-07-30T02:50:19.220Z,102011.81
2022-07-30T02:51:22.715Z,101981.75
2022-07-30T02:52:26.911Z,102006.34
2022-07-30T02:53:30.492Z,101988.53
2022-07-30T02:54:33.334Z,101995.66
2022-07-30T02:55:38.215Z,101981.03
2022-07-30T02:56:41.667Z,102006.34
2022-07-30T02:57:44.939Z,102001.56
2022-07-30T02:58:49.042Z,101988.00
2022-07-30T02:59:53.102Z,101989.69
2022-07-30T03:00:57.204Z,102008.34
2022-07-30T03:02:00.101Z,101999.72
2022-07-30T03:03:05.954Z,101970.16
2022-07-30T03:04:08.910Z,102006.66
2022-07-30T03:05:14.303Z,101992.41
2022-07-30T03:06:17.029Z,102004.97
2022-07-30T03:07:20.396Z,101987.47
2022-07-30T03:08:22.827Z,102004.97
2022-07-30T03:09:25.278Z,101976.09
2022-07-30T03:10:29.116Z,102006.47
2022-07-30T03:11:33.920Z,101973.41
2022-07-30T03:12:38.047Z,102005.59
2022-07-30T03:13:40.398Z,101978.81
2022-07-30T03:14:42.419Z,101998.69
2022-07-30T03:15:49.775Z,102001.88
2022-07-30T03:16:58.259Z,101999.88
2022-07-30T03:18:01.088Z,101965.94
2022-07-30T03:19:09.946Z,101997.50
2022-07-30T03:20:17.990Z,102008.84
2022-07-30T03:21:21.855Z,102006.97
2022-07-30T03:22:28.948Z,101993.41
2022-07-30T03:23:37.758Z,102008.69
2022-07-30T03:24:43.626Z,102010.69
2022-07-30T03:25:54.995Z,101984.34
2022-07-30T03:26:58.790Z,101984.06
2022-07-30T03:28:03.930Z,101980.81
2022-07-30T03:29:08.759Z,102006.47
2022-07-30T03:30:13.851Z,102001.88
2022-07-30T03:31:16.319Z,102005.59
2022-07-30T03:32:19.224Z,101977.09
2022-07-30T03:33:38.124Z,101995.09
2022-07-30T03:34:43.875Z,101991.72
2022-07-30T03:35:49.847Z,101973.88
2022-07-30T03:36:53.800Z,101981.50
2022-07-30T03:37:56.970Z,101978.13
2022-07-30T03:38:59.900Z,101990.31
2022-07-30T03:40:02.883Z,101970.66
2022-07-30T03:41:07.307Z,101995.09
2022-07-30T03:42:09.717Z,101976.75
2022-07-30T03:43:32.475Z,101992.88
2022-07-30T03:44:37.363Z,101971.69
2022-07-30T03:45:42.788Z,101993.09
2022-07-30T03:46:46.640Z,101996.81
2022-07-30T03:47:49.567Z,101987.78
2022-07-30T03:48:53.284Z,101993.41
2022-07-30T03:49:55.354Z,101966.25
2022-07-30T03:50:58.680Z,101965.56
2022-07-30T03:52:02.296Z,101992.72
2022-07-30T03:53:05.913Z,101981.50
2022-07-30T03:54:14.046Z,101969.63
2022-07-30T03:55:17.040Z,101964.75
2022-07-30T03:56:24.820Z,101962.22
2022-07-30T03:58:00.871Z,101984.50
2022-07-30T03:59:05.858Z,101967.31
2022-07-30T04:00:14.752Z,101978.72
2022-07-30T04:01:25.609Z,101970.84
2022-07-30T04:02:30.988Z,101965.97
2022-07-30T04:03:50.085Z,101955.81
2022-07-30T04:04:52.277Z,101967.84
2022-07-30T04:05:54.404Z,101983.47
2022-07-30T04:06:59.558Z,101952.56
2022-07-30T04:08:01.728Z,101976.50
2022-07-30T04:09:11.156Z,101966.97
2022-07-30T04:10:14.747Z,101976.50
2022-07-30T04:11:41.064Z,101957.03
2022-07-30T04:12:46.087Z,101942.75
2022-07-30T04:13:48.310Z,101951.41
2022-07-30T04:14:53.804Z,101960.56
2022-07-30T04:16:36.939Z,101948.53
2022-07-30T04:17:33.351Z,101962.31
2022-07-30T04:18:45.190Z,101948.38
2022-07-30T04:19:59.353Z,101967.75
2022-07-30T04:21:06.084Z,101968.75
2022-07-30T04:22:09.673Z,101953.13
2022-07-30T04:23:13.906Z,101960.56
2022-07-30T04:24:19.939Z,101944.81
2022-07-30T04:25:24.670Z,101945.44
2022-07-30T04:26:26.935Z,101952.09
2022-07-30T04:27:31.152Z,101948.84
2022-07-30T04:28:34.596Z,101962.72
2022-07-30T04:29:37.034Z,101963.25
2022-07-30T04:30:38.914Z,101948.84
2022-07-30T04:31:41.376Z,101937.50
2022-07-30T04:33:08.475Z,101955.00
2022-07-30T04:34:27.219Z,101951.50
2022-07-30T04:35:51.579Z,101969.97
2022-07-30T04:36:57.363Z,101949.81
2022-07-30T04:38:00.597Z,101935.38
2022-07-30T04:39:03.618Z,101952.69
2022-07-30T04:40:06.492Z,101956.91
2022-07-30T04:41:08.556Z,101926.38
2022-07-30T04:42:30.608Z,101939.50
2022-07-30T04:43:41.415Z,101942.03
2022-07-30T04:44:43.616Z,101968.78
2022-07-30T04:46:11.796Z,101945.28
2022-07-30T04:47:14.660Z,101952.38
2022-07-30T04:48:30.607Z,101965.75
2022-07-30T04:49:47.972Z,101948.66
2022-07-30T04:50:53.988Z,101947.28
2022-07-30T04:51:57.786Z,101964.19
2022-07-30T04:53:00.266Z,101965.72
2022-07-30T04:54:15.574Z,101947.03
2022-07-30T04:55:20.239Z,101968.78
2022-07-30T04:56:26.051Z,101946.34
2022-07-30T04:57:28.712Z,101941.09
2022-07-30T04:58:32.687Z,101940.81
2022-07-30T04:59:37.318Z,101944.03
2022-07-30T05:00:41.317Z,101946.44
2022-07-30T05:01:50.692Z,101936.56
2022-07-30T05:02:54.707Z,101963.69
2022-07-30T05:03:59.343Z,101947.72
2022-07-30T05:05:02.969Z,101940.25
2022-07-30T05:06:06.976Z,101953.03
2022-07-30T05:07:14.663Z,101943.66
2022-07-30T05:08:17.063Z,101948.72
2022-07-30T05:09:20.021Z,101943.31
2022-07-30T05:10:22.094Z,101949.44
2022-07-30T05:11:24.028Z,101946.91
2022-07-30T05:12:39.213Z,101955.91
2022-07-30T05:13:48.822Z,101931.97
2022-07-30T05:14:54.976Z,101948.13
2022-07-30T05:15:57.352Z,101952.38
2022-07-30T05:17:00.878Z,101955.41
2022-07-30T05:18:04.191Z,101952.69
2022-07-30T05:19:09.759Z,101945.88
2022-07-30T05:20:12.476Z,101940.63
2022-07-30T05:21:46.823Z,101946.81
2022-07-30T05:22:51.064Z,101933.59
2022-07-30T05:23:54.588Z,101945.44
2022-07-30T05:25:06.413Z,101937.66
2022-07-30T05:26:21.708Z,101927.50
2022-07-30T05:27:27.026Z,101939.53
2022-07-30T05:28:29.077Z,101919.16
2022-07-30T05:29:34.047Z,101933.91
2022-07-30T05:30:46.080Z,101934.97
2022-07-30T05:31:52.427Z,101934.28
2022-07-30T05:32:55.975Z,101955.13
2022-07-30T05:34:02.805Z,101917.28
2022-07-30T05:35:12.639Z,101929.88
2022-07-30T05:36:14.853Z,101936.97
2022-07-30T05:37:17.284Z,101917.16
2022-07-30T05:38:19.567Z,101923.56
2022-07-30T05:40:02.173Z,101937.72
2022-07-30T05:41:33.294Z,101910.63
2022-07-30T05:42:38.284Z,101933.28
2022-07-30T05:43:43.424Z,101919.59
2022-07-30T05:44:45.305Z,101927.84
2022-07-30T05:45:47.265Z,101914.84
2022-07-30T05:46:49.328Z,101932.94
2022-07-30T05:47:51.411Z,101930.22
2022-07-30T05:48:53.652Z,101914.84
2022-07-30T05:49:55.955Z,101906.66
2022-07-30T05:50:57.866Z,101914.84
2022-07-30T05:51:59.762Z,101904.16
2022-07-30T05:53:02.978Z,101928.41
2022-07-30T05:54:24.748Z,101911.31
2022-07-30T05:55:45.785Z,101905.88
2022-07-30T05:57:11.063Z,101912.03
2022-07-30T05:58:13.691Z,101912.66
2022-07-30T05:59:15.606Z,101916.38
2022-07-30T06:00:36.942Z,101900.47
2022-07-30T06:01:38.905Z,101915.00
2022-07-30T06:02:49.232Z,101914.34
2022-07-30T06:03:56.887Z,101904.03
2022-07-30T06:05:22.177Z,101912.66
2022-07-30T06:06:24.272Z,101915.75
2022-07-30T06:07:27.333Z,101916.38
2022-07-30T06:08:31.587Z,101906.22
2022-07-30T06:09:36.403Z,101897.41
2022-07-30T06:10:39.681Z,101904.19
2022-07-30T06:11:41.672Z,101898.28
2022-07-30T06:12:43.679Z,101898.28
2022-07-30T06:13:45.734Z,101916.59
2022-07-30T06:14:48.179Z,101893.69
2022-07-30T06:15:56.973Z,101916.44
2022-07-30T06:16:59.207Z,101910.84
2022-07-30T06:18:04.660Z,101915.47
2022-07-30T06:19:21.339Z,101903.41
2022-07-30T06:20:23.922Z,101885.47
2022-07-30T06:22:05.379Z,101903.09
2022-07-30T06:23:08.688Z,101916.53
2022-07-30T06:24:48.926Z,101895.88
2022-07-30T06:25:54.621Z,101890.47
2022-07-30T06:26:56.436Z,101907.44
2022-07-30T06:28:06.857Z,101883.69
2022-07-30T06:29:17.847Z,101907.47
2022-07-30T06:30:19.627Z,101877.13
2022-07-30T06:31:32.085Z,101883.22
2022-07-30T06:32:35.452Z,101901.22
2022-07-30T06:33:37.688Z,101900.03
2022-07-30T06:34:39.593Z,101897.50
2022-07-30T06:35:42.680Z,101899.38
2022-07-30T06:36:46.227Z,101892.25
2022-07-30T06:38:01.802Z,101884.81
2022-07-30T06:39:13.825Z,101890.41
2022-07-30T06:40:28.983Z,101886.16
2022-07-30T06:41:49.033Z,101860.28
2022-07-30T06:42:50.848Z,101884.66
2022-07-30T06:44:15.561Z,101890.94
2022-07-30T06:45:32.275Z,101881.13
2022-07-30T06:46:57.169Z,101886.53
2022-07-30T06:48:00.817Z,101886.53
2022-07-30T06:49:06.179Z,101865.88
2022-07-30T06:50:09.511Z,101886.53
2022-07-30T06:51:13.590Z,101852.66
2022-07-30T06:52:18.782Z,101858.75
2022-07-30T06:53:25.797Z,101886.84
2022-07-30T06:54:48.511Z,101862.81
2022-07-30T06:56:00.318Z,101867.19
2022-07-30T06:57:09.520Z,101883.00
2022-07-30T06:58:11.609Z,101885.84
2022-07-30T06:59:56.927Z,101872.13
2022-07-30T07:01:16.435Z,101877.19
2022-07-30T07:02:19.105Z,101868.56
2022-07-30T07:03:47.048Z,101863.50
2022-07-30T07:04:50.324Z,101862.47
2022-07-30T07:05:52.420Z,101853.00
2022-07-30T07:06:54.257Z,101864.50
2022-07-30T07:08:04.751Z,101855.34
2022-07-30T07:09:11.853Z,101848.25
2022-07-30T07:10:21.323Z,101842.50
2022-07-30T07:11:28.934Z,101864.31
2022-07-30T07:12:32.558Z,101836.06
2022-07-30T07:13:35.270Z,101849.59
2022-07-30T07:14:41.773Z,101865.66
2022-07-30T07:15:43.574Z,101855.69
2022-07-30T07:16:50.522Z,101861.44
2022-07-30T07:18:31.110Z,101844.97
2022-07-30T07:20:01.385Z,101831.63
2022-07-30T07:21:02.609Z,101828.56
2022-07-30T07:22:04.511Z,101831.28
2022-07-30T07:23:09.382Z,101830.97
2022-07-30T07:24:14.766Z,101844.97
2022-07-30T07:25:32.218Z,101845.47
2022-07-30T07:26:34.069Z,101826.88
2022-07-30T07:27:37.638Z,101821.81
2022-07-30T07:28:40.900Z,101847.16
2022-07-30T07:30:04.919Z,101832.63
2022-07-30T07:31:07.619Z,101835.66
2022-07-30T07:32:10.569Z,101819.06
2022-07-30T07:33:15.606Z,101816.53
2022-07-30T07:34:19.746Z,101838.03
2022-07-30T07:35:22.120Z,101822.81
2022-07-30T07:36:25.483Z,101845.81
2022-07-30T07:37:27.674Z,101836.84
2022-07-30T07:38:30.406Z,101835.31
2022-07-30T07:39:35.418Z,101826.66
2022-07-30T07:40:39.496Z,101827.53
2022-07-30T07:41:49.058Z,101828.88
2022-07-30T07:42:54.319Z,101822.94
2022-07-30T07:43:56.300Z,101803.81
2022-07-30T07:45:07.504Z,101810.22
2022-07-30T07:46:33.181Z,101799.91
2022-07-30T07:47:51.528Z,101831.84
2022-07-30T07:49:18.318Z,101817.81
2022-07-30T07:50:24.395Z,101823.06
2022-07-30T07:51:46.718Z,101818.34
2022-07-30T07:52:50.662Z,101807.69
2022-07-30T07:54:20.007Z,101805.84
2022-07-30T07:55:15.476Z,101826.28
2022-07-30T07:56:17.741Z,101838.31
2022-07-30T07:57:19.647Z,101812.25
2022-07-30T07:58:26.106Z,101829.50
2022-07-30T07:59:36.067Z,101819.34
2022-07-30T08:00:48.363Z,101800.41
2022-07-30T08:01:51.645Z,101831.19
2022-07-30T08:03:11.780Z,101826.78
2022-07-30T08:04:14.221Z,101814.78
2022-07-30T08:06:00.972Z,101816.97
2022-07-30T08:07:18.706Z,101790.19
2022-07-30T08:08:52.855Z,101793.56
2022-07-30T08:10:26.903Z,101797.09
2022-07-30T08:12:01.283Z,101818.09
2022-07-30T08:13:52.838Z,101818.09
2022-07-30T08:15:04.780Z,101808.44
2022-07-30T08:16:29.740Z,101809.28
2022-07-30T08:17:49.970Z,101820.66
2022-07-30T08:18:58.930Z,101805.59
2022-07-30T08:20:06.686Z,101797.31
2022-07-30T08:21:09.184Z,101787.88
2022-07-30T08:22:11.379Z,101782.81
2022-07-30T08:23:14.668Z,101814.56
2022-07-30T08:24:16.487Z,101799.72
2022-07-30T08:25:22.460Z,101803.28
2022-07-30T08:26:27.200Z,101790.91
2022-07-30T08:27:29.045Z,101795.16
2022-07-30T08:28:35.755Z,101820.84
2022-07-30T08:29:39.521Z,101808.97
2022-07-30T08:30:41.701Z,101810.34
2022-07-30T08:31:43.967Z,101805.75
2022-07-30T08:32:45.809Z,101812.53
2022-07-30T08:33:48.450Z,101814.41
2022-07-30T08:34:50.505Z,101778.53
2022-07-30T08:35:59.113Z,101807.28
2022-07-30T08:37:04.807Z,101787.13
2022-07-30T08:38:07.007Z,101815.75
2022-07-30T08:39:09.653Z,101775.13
2022-07-30T08:40:12.155Z,101786.97
2022-07-30T08:41:26.231Z,101803.00
2022-07-30T08:42:28.280Z,101795.41
2022-07-30T08:43:31.803Z,101795.22
2022-07-30T08:44:35.462Z,101800.28
2022-07-30T08:45:40.317Z,101731.34
2022-07-30T08:47:00.764Z,101789.78
2022-07-30T08:48:24.116Z,101778.94
2022-07-30T08:49:26.575Z,101783.72
2022-07-30T08:50:29.444Z,101774.91
2022-07-30T08:51:53.000Z,101801.31
2022-07-30T08:53:21.311Z,101785.69
2022-07-30T08:54:23.431Z,101765.75
2022-07-30T08:55:25.792Z,101778.78
2022-07-30T08:56:28.996Z,101769.47
2022-07-30T08:57:32.099Z,101781.00
2022-07-30T08:58:37.245Z,101780.84
2022-07-30T08:59:59.907Z,101784.03
2022-07-30T09:01:04.307Z,101769.97
2022-07-30T09:02:10.372Z,101783.16
2022-07-30T09:03:26.637Z,101779.97
2022-07-30T09:04:28.700Z,101785.84
2022-07-30T09:05:31.019Z,101785.19
2022-07-30T09:06:32.910Z,101765.75
2022-07-30T09:07:37.361Z,101782.66
2022-07-30T09:08:41.989Z,101767.06
2022-07-30T09:09:43.839Z,101769.13
2022-07-30T09:10:53.062Z,101761.19
2022-07-30T09:11:55.871Z,101764.72
2022-07-30T09:12:58.174Z,101749.84
2022-07-30T09:14:09.254Z,101753.88
2022-07-30T09:15:17.177Z,101775.00
2022-07-30T09:16:24.329Z,101771.47
2022-07-30T09:17:31.242Z,101752.50
2022-07-30T09:18:37.746Z,101769.94
2022-07-30T09:19:40.039Z,101747.25
2022-07-30T09:20:41.912Z,101767.22
2022-07-30T09:21:59.266Z,101770.13
2022-07-30T09:23:27.633Z,101757.22
2022-07-30T09:24:45.100Z,101760.94
2022-07-30T09:25:51.510Z,101753.66
2022-07-30T09:27:11.901Z,101742.28
2022-07-30T09:28:17.134Z,101760.28
2022-07-30T09:29:39.303Z,101749.06
2022-07-30T09:31:00.375Z,101759.88
2022-07-30T09:32:51.743Z,101756.81
2022-07-30T09:34:32.266Z,101752.34
2022-07-30T09:35:41.257Z,101758.13
2022-07-30T09:36:45.817Z,101752.25
2022-07-30T09:38:04.501Z,101735.50
2022-07-30T09:39:38.020Z,101759.16
2022-07-30T09:41:38.103Z,101748.81
2022-07-30T09:42:45.893Z,101725.44
2022-07-30T09:43:51.492Z,101751.56
2022-07-30T09:45:06.259Z,101754.75
2022-07-30T09:46:08.310Z,101728.56
2022-07-30T09:47:10.204Z,101731.28
2022-07-30T09:48:25.205Z,101723.13
2022-07-30T09:49:29.068Z,101738.34
2022-07-30T09:50:31.250Z,101719.94
2022-07-30T09:51:55.639Z,101740.56
2022-07-30T09:53:09.827Z,101729.06
2022-07-30T09:54:16.196Z,101725.31
2022-07-30T09:55:34.157Z,101731.06
2022-07-30T09:56:36.059Z,101736.13
2022-07-30T09:57:59.399Z,101728.84
2022-07-30T09:59:03.647Z,101727.69
2022-07-30T10:00:24.014Z,101740.00
2022-07-30T10:01:56.280Z,101735.69
2022-07-30T10:03:34.234Z,101722.69
2022-07-30T10:05:14.891Z,101721.66
2022-07-30T10:06:17.471Z,101722.69
2022-07-30T10:07:25.175Z,101731.66
2022-07-30T10:08:50.272Z,101731.97
2022-07-30T10:09:53.428Z,101726.91
2022-07-30T10:10:55.835Z,101712.44
2022-07-30T10:12:00.927Z,101727.97
2022-07-30T10:13:09.029Z,101739.44
2022-07-30T10:14:16.610Z,101727.56
2022-07-30T10:15:21.377Z,101714.13
2022-07-30T10:16:27.271Z,101709.16
2022-07-30T10:17:33.183Z,101705.25
2022-07-30T10:19:00.466Z,101707.91
2022-07-30T10:20:27.164Z,101709.22
2022-07-30T10:21:49.755Z,101721.72
2022-07-30T10:22:54.363Z,101725.94
2022-07-30T10:24:13.294Z,101726.78
2022-07-30T10:25:59.403Z,101721.47
2022-07-30T10:27:25.112Z,101719.25
2022-07-30T10:28:43.563Z,101706.75
2022-07-30T10:29:45.648Z,101717.06
2022-07-30T10:30:50.734Z,101709.84
2022-07-30T10:31:54.349Z,101709.19
2022-07-30T10:32:58.634Z,101691.63
2022-07-30T10:34:02.297Z,101713.22
2022-07-30T10:35:05.839Z,101693.97
2022-07-30T10:36:11.104Z,101715.06
2022-07-30T10:37:15.821Z,101689.41
2022-07-30T10:38:22.143Z,101697.16
2022-07-30T10:39:28.436Z,101709.84
2022-07-30T10:40:40.499Z,101720.63
2022-07-30T10:41:47.323Z,101717.56
2022-07-30T10:43:22.379Z,101695.72
2022-07-30T10:44:32.871Z,101712.41
2022-07-30T10:45:34.989Z,101707.16
2022-07-30T10:47:06.863Z,101702.09
2022-07-30T10:48:09.726Z,101693.50
2022-07-30T10:49:18.514Z,101708.84
2022-07-30T10:50:27.072Z,101713.44
2022-07-30T10:51:46.583Z,101693.50
2022-07-30T10:52:55.750Z,101705.78
2022-07-30T10:53:57.752Z,101707.34
2022-07-30T10:54:59.901Z,101681.69
2022-07-30T10:56:25.971Z,101709.16
2022-07-30T10:57:32.216Z,101703.25
2022-07-30T10:59:08.292Z,101708.78
2022-07-30T11:00:12.148Z,101690.03
2022-07-30T11:01:18.163Z,101694.44
2022-07-30T11:02:21.004Z,101690.88
2022-07-30T11:03:40.448Z,101693.94
2022-07-30T11:04:46.597Z,101690.69
2022-07-30T11:05:50.193Z,101691.06
2022-07-30T11:07:17.432Z,101705.97
2022-07-30T11:08:30.964Z,101675.31
2022-07-30T11:09:42.736Z,101698.31
2022-07-30T11:10:45.087Z,101696.63
2022-07-30T11:12:01.276Z,101688.53
2022-07-30T11:13:08.870Z,101682.91
2022-07-30T11:14:12.937Z,101680.56
2022-07-30T11:15:19.333Z,101675.16
2022-07-30T11:16:23.957Z,101673.81
2022-07-30T11:17:26.707Z,101668.94
2022-07-30T11:18:29.003Z,101674.47
2022-07-30T11:19:55.524Z,101678.88
2022-07-30T11:21:14.673Z,101690.28
2022-07-30T11:22:29.648Z,101693.00
2022-07-30T11:23:39.624Z,101674.03
2022-07-30T11:24:47.421Z,101687.06
2022-07-30T11:25:54.713Z,101664.94
2022-07-30T11:26:57.020Z,101670.38
2022-07-30T11:28:00.820Z,101678.44
2022-07-30T11:29:04.704Z,101670.53
2022-07-30T11:30:29.341Z,101676.91
2022-07-30T11:31:56.813Z,101670.84
2022-07-30T11:33:03.942Z,101685.88
2022-07-30T11:34:25.693Z,101680.44
2022-07-30T11:35:35.635Z,101680.78
2022-07-30T11:36:38.164Z,101662.22
2022-07-30T11:38:13.276Z,101682.47
2022-07-30T11:39:15.082Z,101648.00
2022-07-30T11:40:17.053Z,101677.41
2022-07-30T11:41:28.287Z,101668.97
2022-07-30T11:42:34.847Z,101673.38
2022-07-30T11:43:37.149Z,101679.63
2022-07-30T11:44:39.010Z,101672.50
2022-07-30T11:45:41.394Z,101658.56
2022-07-30T11:46:49.409Z,101660.72
2022-07-30T11:47:56.463Z,101662.88
2022-07-30T11:49:02.882Z,101678.16
2022-07-30T11:50:05.174Z,101670.38
2022-07-30T11:51:09.019Z,101664.75
2022-07-30T11:52:11.183Z,101657.91
2022-07-30T11:53:20.168Z,101670.16
2022-07-30T11:54:23.317Z,101656.50
2022-07-30T11:55:31.147Z,101663.06
2022-07-30T11:56:33.660Z,101667.47
2022-07-30T11:57:42.694Z,101669.34
2022-07-30T11:58:45.426Z,101661.00
2022-07-30T11:59:58.162Z,101667.28
2022-07-30T12:01:03.694Z,101657.25
2022-07-30T12:02:11.400Z,101655.47
2022-07-30T12:03:16.358Z,101663.91
2022-07-30T12:04:18.889Z,101656.81
2022-07-30T12:05:27.070Z,101648.53
2022-07-30T12:06:30.027Z,101654.63
2022-07-30T12:07:32.083Z,101647.41
2022-07-30T12:08:41.491Z,101655.66
2022-07-30T12:09:43.864Z,101661.19
2022-07-30T12:11:00.170Z,101660.16
2022-07-30T12:12:02.579Z,101635.69
2022-07-30T12:13:13.248Z,101663.06
2022-07-30T12:14:14.992Z,101650.44
2022-07-30T12:15:34.298Z,101655.41
2022-07-30T12:16:36.130Z,101653.72
2022-07-30T12:17:45.583Z,101655.78
2022-07-30T12:18:48.547Z,101644.25
2022-07-30T12:19:51.523Z,101653.06
2022-07-30T12:21:16.520Z,101648.94
2022-07-30T12:22:18.535Z,101652.47
2022-07-30T12:23:21.685Z,101643.88
2022-07-30T12:24:26.942Z,101643.22
2022-07-30T12:25:29.195Z,101639.84
2022-07-30T12:26:34.275Z,101643.41
2022-07-30T12:27:37.326Z,101630.41
2022-07-30T12:28:39.237Z,101623.66
2022-07-30T12:29:41.564Z,101622.63
2022-07-30T12:30:43.939Z,101626.16
2022-07-30T12:31:46.343Z,101628.72
2022-07-30T12:32:48.416Z,101624.03
2022-07-30T12:33:50.264Z,101634.13
2022-07-30T12:34:58.754Z,101631.22
2022-07-30T12:36:01.150Z,101628.13
2022-07-30T12:37:10.361Z,101619.53
2022-07-30T12:38:13.456Z,101627.97
2022-07-30T12:39:21.345Z,101633.41
2022-07-30T12:40:23.446Z,101603.78
2022-07-30T12:41:44.774Z,101629.28
2022-07-30T12:42:54.327Z,101623.84
2022-07-30T12:43:56.828Z,101617.47
2022-07-30T12:45:00.076Z,101624.59
2022-07-30T12:46:01.957Z,101626.94
2022-07-30T12:47:06.543Z,101634.22
2022-07-30T12:48:11.541Z,101629.00
2022-07-30T12:49:22.379Z,101616.16
2022-07-30T12:50:26.221Z,101629.66
2022-07-30T12:51:32.760Z,101627.97
2022-07-30T12:52:38.571Z,101614.47
2022-07-30T12:53:40.423Z,101626.94
2022-07-30T12:54:43.283Z,101630.69
2022-07-30T12:55:45.069Z,101622.91
2022-07-30T12:57:05.794Z,101625.06
2022-07-30T12:58:09.215Z,101617.84
2022-07-30T12:59:22.584Z,101600.91